sensor_id;sensor_type;location;lat;lon;timestamp;pressure;altitude;pressure_sealevel;temperature;humidity
11343;BME280;5726;42.160;24.746;2023-05-24T00:00:27;99283.22;;;18.76;97.94
11343;BME280;5726;42.160;24.746;2023-05-24T00:02:53;99275.66;;;18.70;97.90
11343;BME280;5726;42.160;24.746;2023-05-24T00:05:18;99275.94;;;18.80;97.40
11343;BME280;5726;42.160;24.746;2023-05-24T00:07:44;99275.75;;;18.73;97.95
11343;BME280;5726;42.160;24.746;2023-05-24T00:10:09;99272.19;;;18.85;96.67
11343;BME280;5726;42.160;24.746;2023-05-24T00:12:35;99269.63;;;18.76;96.20
11343;BME280;5726;42.160;24.746;2023-05-24T00:15:00;99270.59;;;18.84;96.84
11343;BME280;5726;42.160;24.746;2023-05-24T00:17:26;99276.84;;;18.84;96.17
11343;BME280;5726;42.160;24.746;2023-05-24T00:19:54;99268.50;;;18.77;96.48
11343;BME280;5726;42.160;24.746;2023-05-24T00:22:20;99269.44;;;18.69;96.05
11343;BME280;5726;42.160;24.746;2023-05-24T00:24:46;99266.38;;;18.71;95.49
11343;BME280;5726;42.160;24.746;2023-05-24T00:27:13;99267.75;;;18.38;97.14
11343;BME280;5726;42.160;24.746;2023-05-24T00:29:38;99276.19;;;18.48;96.65
11343;BME280;5726;42.160;24.746;2023-05-24T00:32:04;99265.13;;;18.53;95.90
11343;BME280;5726;42.160;24.746;2023-05-24T00:34:30;99271.72;;;18.40;96.95
11343;BME280;5726;42.160;24.746;2023-05-24T00:36:55;99267.66;;;18.34;97.20
11343;BME280;5726;42.160;24.746;2023-05-24T00:39:22;99261.94;;;18.51;96.11
11343;BME280;5726;42.160;24.746;2023-05-24T00:41:48;99256.91;;;18.65;95.61
11343;BME280;5726;42.160;24.746;2023-05-24T00:44:14;99254.72;;;18.43;96.77
11343;BME280;5726;42.160;24.746;2023-05-24T00:46:40;99251.47;;;18.38;96.06
11343;BME280;5726;42.160;24.746;2023-05-24T00:49:05;99244.25;;;18.30;96.25
11343;BME280;5726;42.160;24.746;2023-05-24T00:51:31;99239.78;;;18.10;97.22
11343;BME280;5726;42.160;24.746;2023-05-24T00:53:58;99247.31;;;17.77;99.83
11343;BME280;5726;42.160;24.746;2023-05-24T00:56:24;99238.03;;;17.78;99.31
11343;BME280;5726;42.160;24.746;2023-05-24T00:58:50;99235.69;;;17.29;100.00
11343;BME280;5726;42.160;24.746;2023-05-24T01:01:18;99238.28;;;17.38;100.00
11343;BME280;5726;42.160;24.746;2023-05-24T01:03:44;99243.03;;;17.29;100.00
11343;BME280;5726;42.160;24.746;2023-05-24T01:06:11;99233.09;;;17.33;100.00
11343;BME280;5726;42.160;24.746;2023-05-24T01:14:17;99229.53;;;17.09;100.00
11343;BME280;5726;42.160;24.746;2023-05-24T01:17:12;99224.59;;;16.99;100.00
11343;BME280;5726;42.160;24.746;2023-05-24T01:27:32;99226.97;;;17.00;99.69
11343;BME280;5726;42.160;24.746;2023-05-24T01:29:59;99219.50;;;16.97;99.75
11343;BME280;5726;42.160;24.746;2023-05-24T01:32:26;99224.97;;;17.21;98.26
11343;BME280;5726;42.160;24.746;2023-05-24T01:34:52;99223.88;;;16.78;100.00
11343;BME280;5726;42.160;24.746;2023-05-24T01:37:17;99235.22;;;16.72;100.00
11343;BME280;5726;42.160;24.746;2023-05-24T01:39:42;99226.91;;;16.76;100.00
11343;BME280;5726;42.160;24.746;2023-05-24T01:42:24;99224.75;;;16.82;100.00
11343;BME280;5726;42.160;24.746;2023-05-24T01:50:34;99223.22;;;17.05;100.00
11343;BME280;5726;42.160;24.746;2023-05-24T01:53:05;99226.28;;;17.03;100.00
11343;BME280;5726;42.160;24.746;2023-05-24T01:55:32;99232.44;;;16.48;100.00
11343;BME280;5726;42.160;24.746;2023-05-24T01:58:01;99231.59;;;16.56;100.00
11343;BME280;5726;42.160;24.746;2023-05-24T02:00:27;99235.03;;;16.76;100.00
11343;BME280;5726;42.160;24.746;2023-05-24T02:02:54;99234.44;;;16.71;100.00
11343;BME280;5726;42.160;24.746;2023-05-24T02:05:20;99238.88;;;16.87;100.00
11343;BME280;5726;42.160;24.746;2023-05-24T02:07:45;99244.09;;;17.04;100.00
11343;BME280;5726;42.160;24.746;2023-05-24T02:10:11;99245.22;;;16.91;100.00
11343;BME280;5726;42.160;24.746;2023-05-24T02:12:37;99260.72;;;16.71;100.00
11343;BME280;5726;42.160;24.746;2023-05-24T02:15:02;99269.56;;;16.79;100.00
11343;BME280;5726;42.160;24.746;2023-05-24T02:17:29;99270.69;;;16.78;100.00
11343;BME280;5726;42.160;24.746;2023-05-24T02:19:58;99277.06;;;17.06;100.00
11343;BME280;5726;42.160;24.746;2023-05-24T02:22:23;99277.53;;;17.08;100.00
11343;BME280;5726;42.160;24.746;2023-05-24T02:24:49;99269.03;;;16.98;100.00
11343;BME280;5726;42.160;24.746;2023-05-24T02:27:15;99275.50;;;17.17;100.00
11343;BME280;5726;42.160;24.746;2023-05-24T02:29:40;99271.59;;;17.26;100.00
11343;BME280;5726;42.160;24.746;2023-05-24T02:32:06;99265.41;;;17.38;100.00
11343;BME280;5726;42.160;24.746;2023-05-24T02:34:31;99281.22;;;17.48;100.00
11343;BME280;5726;42.160;24.746;2023-05-24T02:36:57;99277.25;;;17.69;97.92
11343;BME280;5726;42.160;24.746;2023-05-24T02:39:23;99282.91;;;17.76;97.50
11343;BME280;5726;42.160;24.746;2023-05-24T02:41:48;99289.13;;;17.76;96.27
11343;BME280;5726;42.160;24.746;2023-05-24T02:44:13;99285.72;;;17.79;96.42
11343;BME280;5726;42.160;24.746;2023-05-24T02:46:39;99293.53;;;17.69;95.85
11343;BME280;5726;42.160;24.746;2023-05-24T02:49:05;99285.72;;;17.68;96.87
11343;BME280;5726;42.160;24.746;2023-05-24T02:51:30;99302.56;;;17.61;97.05
11343;BME280;5726;42.160;24.746;2023-05-24T02:53:57;99297.81;;;17.58;96.84
11343;BME280;5726;42.160;24.746;2023-05-24T02:56:22;99302.44;;;17.46;97.64
11343;BME280;5726;42.160;24.746;2023-05-24T02:58:48;99293.06;;;17.31;97.99
11343;BME280;5726;42.160;24.746;2023-05-24T03:01:13;99299.72;;;17.46;97.53
11343;BME280;5726;42.160;24.746;2023-05-24T03:03:39;99288.31;;;17.28;99.03
11343;BME280;5726;42.160;24.746;2023-05-24T03:06:05;99300.84;;;17.33;99.32
11343;BME280;5726;42.160;24.746;2023-05-24T03:08:32;99308.88;;;17.41;98.49
11343;BME280;5726;42.160;24.746;2023-05-24T03:10:57;99299.16;;;17.28;99.19
11343;BME280;5726;42.160;24.746;2023-05-24T03:13:23;99293.09;;;17.43;97.91
11343;BME280;5726;42.160;24.746;2023-05-24T03:15:48;99290.72;;;17.54;97.81
11343;BME280;5726;42.160;24.746;2023-05-24T03:18:14;99287.09;;;17.50;98.17
11343;BME280;5726;42.160;24.746;2023-05-24T03:20:39;99289.88;;;17.29;98.77
11343;BME280;5726;42.160;24.746;2023-05-24T03:23:05;99298.91;;;17.22;100.00
11343;BME280;5726;42.160;24.746;2023-05-24T03:25:31;99296.66;;;17.23;100.00
11343;BME280;5726;42.160;24.746;2023-05-24T03:27:57;99302.56;;;17.61;98.82
11343;BME280;5726;42.160;24.746;2023-05-24T03:30:22;99296.34;;;17.84;96.82
11343;BME280;5726;42.160;24.746;2023-05-24T03:32:47;99297.44;;;18.58;93.57
11343;BME280;5726;42.160;24.746;2023-05-24T03:35:13;99300.50;;;19.11;89.94
11343;BME280;5726;42.160;24.746;2023-05-24T03:37:39;99301.91;;;19.20;87.63
11343;BME280;5726;42.160;24.746;2023-05-24T03:40:05;99292.03;;;19.01;88.91
11343;BME280;5726;42.160;24.746;2023-05-24T03:42:31;99301.66;;;19.41;85.84
11343;BME280;5726;42.160;24.746;2023-05-24T03:44:56;99296.47;;;19.66;84.76
11343;BME280;5726;42.160;24.746;2023-05-24T03:47:22;99298.56;;;20.04;83.55
11343;BME280;5726;42.160;24.746;2023-05-24T03:49:47;99297.38;;;20.39;81.55
11343;BME280;5726;42.160;24.746;2023-05-24T03:52:12;99303.94;;;20.72;78.71
11343;BME280;5726;42.160;24.746;2023-05-24T03:54:38;99301.00;;;21.21;76.54
11343;BME280;5726;42.160;24.746;2023-05-24T03:57:03;99299.38;;;21.61;74.32
11343;BME280;5726;42.160;24.746;2023-05-24T03:59:29;99303.16;;;22.02;72.69
11343;BME280;5726;42.160;24.746;2023-05-24T04:01:55;99309.72;;;22.23;70.85
11343;BME280;5726;42.160;24.746;2023-05-24T04:04:20;99309.94;;;22.37;69.78
11343;BME280;5726;42.160;24.746;2023-05-24T04:06:46;99308.28;;;22.61;69.20
11343;BME280;5726;42.160;24.746;2023-05-24T04:09:12;99303.25;;;22.63;70.38
11343;BME280;5726;42.160;24.746;2023-05-24T04:11:39;99309.47;;;22.60;68.38
11343;BME280;5726;42.160;24.746;2023-05-24T04:14:04;99314.00;;;22.50;68.04
11343;BME280;5726;42.160;24.746;2023-05-24T04:16:30;99314.66;;;22.40;68.24
11343;BME280;5726;42.160;24.746;2023-05-24T04:18:58;99312.16;;;22.28;67.93
11343;BME280;5726;42.160;24.746;2023-05-24T04:21:26;99310.06;;;22.47;66.65
11343;BME280;5726;42.160;24.746;2023-05-24T04:23:51;99309.69;;;22.49;67.27
11343;BME280;5726;42.160;24.746;2023-05-24T04:26:17;99318.06;;;22.62;65.94
11343;BME280;5726;42.160;24.746;2023-05-24T04:28:43;99317.38;;;22.40;67.37
11343;BME280;5726;42.160;24.746;2023-05-24T04:31:09;99317.47;;;22.47;66.48
11343;BME280;5726;42.160;24.746;2023-05-24T04:33:36;99318.63;;;22.46;66.86
11343;BME280;5726;42.160;24.746;2023-05-24T04:36:03;99311.75;;;22.58;64.67
11343;BME280;5726;42.160;24.746;2023-05-24T04:38:29;99299.78;;;22.11;66.86
11343;BME280;5726;42.160;24.746;2023-05-24T04:40:59;99294.69;;;22.10;66.41
11343;BME280;5726;42.160;24.746;2023-05-24T04:43:25;99291.22;;;21.87;69.37
11343;BME280;5726;42.160;24.746;2023-05-24T04:45:51;99297.53;;;21.91;68.56
11343;BME280;5726;42.160;24.746;2023-05-24T04:48:21;99293.84;;;22.06;68.79
11343;BME280;5726;42.160;24.746;2023-05-24T04:50:52;99289.38;;;22.20;66.29
11343;BME280;5726;42.160;24.746;2023-05-24T04:53:18;99298.13;;;22.29;67.32
11343;BME280;5726;42.160;24.746;2023-05-24T04:55:44;99292.63;;;22.58;65.56
11343;BME280;5726;42.160;24.746;2023-05-24T04:58:09;99303.72;;;22.40;67.86
11343;BME280;5726;42.160;24.746;2023-05-24T05:00:35;99311.75;;;22.58;66.69
11343;BME280;5726;42.160;24.746;2023-05-24T05:03:01;99315.63;;;22.87;66.44
11343;BME280;5726;42.160;24.746;2023-05-24T05:05:26;99315.31;;;22.92;64.71
11343;BME280;5726;42.160;24.746;2023-05-24T05:07:52;99319.41;;;22.75;65.33
11343;BME280;5726;42.160;24.746;2023-05-24T05:10:17;99327.75;;;22.86;66.48
11343;BME280;5726;42.160;24.746;2023-05-24T05:12:43;99327.78;;;22.89;65.63
11343;BME280;5726;42.160;24.746;2023-05-24T05:15:09;99333.03;;;23.05;65.83
11343;BME280;5726;42.160;24.746;2023-05-24T05:17:34;99335.69;;;23.30;65.12
11343;BME280;5726;42.160;24.746;2023-05-24T05:20:00;99326.75;;;23.37;65.33
11343;BME280;5726;42.160;24.746;2023-05-24T05:22:26;99332.34;;;23.47;65.71
11343;BME280;5726;42.160;24.746;2023-05-24T05:24:51;99336.44;;;23.67;64.61
11343;BME280;5726;42.160;24.746;2023-05-24T05:27:17;99339.75;;;23.86;63.58
11343;BME280;5726;42.160;24.746;2023-05-24T05:29:42;99338.38;;;24.13;63.52
11343;BME280;5726;42.160;24.746;2023-05-24T05:32:08;99336.09;;;24.22;63.28
11343;BME280;5726;42.160;24.746;2023-05-24T05:34:34;99340.19;;;24.42;63.21
11343;BME280;5726;42.160;24.746;2023-05-24T05:36:59;99335.53;;;24.52;63.09
11343;BME280;5726;42.160;24.746;2023-05-24T05:39:25;99339.16;;;24.74;62.71
11343;BME280;5726;42.160;24.746;2023-05-24T05:41:50;99331.09;;;25.12;62.62
11343;BME280;5726;42.160;24.746;2023-05-24T05:44:16;99327.59;;;25.29;60.21
11343;BME280;5726;42.160;24.746;2023-05-24T05:46:41;99327.19;;;25.20;61.00
11343;BME280;5726;42.160;24.746;2023-05-24T05:49:10;99327.47;;;24.94;62.10
11343;BME280;5726;42.160;24.746;2023-05-24T05:51:36;99333.66;;;24.67;62.13
11343;BME280;5726;42.160;24.746;2023-05-24T05:54:03;99339.31;;;25.12;62.19
11343;BME280;5726;42.160;24.746;2023-05-24T05:56:29;99332.66;;;25.06;62.36
11343;BME280;5726;42.160;24.746;2023-05-24T05:58:54;99333.13;;;25.49;60.54
11343;BME280;5726;42.160;24.746;2023-05-24T06:01:20;99339.75;;;25.35;59.86
11343;BME280;5726;42.160;24.746;2023-05-24T06:03:45;99352.72;;;25.48;59.96
11343;BME280;5726;42.160;24.746;2023-05-24T06:06:11;99353.84;;;25.23;59.68
11343;BME280;5726;42.160;24.746;2023-05-24T06:08:36;99349.72;;;24.68;62.10
11343;BME280;5726;42.160;24.746;2023-05-24T06:11:02;99352.03;;;24.63;61.93
11343;BME280;5726;42.160;24.746;2023-05-24T06:13:28;99347.63;;;24.45;63.05
11343;BME280;5726;42.160;24.746;2023-05-24T06:15:55;99350.19;;;24.91;62.32
11343;BME280;5726;42.160;24.746;2023-05-24T06:18:20;99356.06;;;24.93;61.71
11343;BME280;5726;42.160;24.746;2023-05-24T06:20:46;99349.19;;;25.37;60.77
11343;BME280;5726;42.160;24.746;2023-05-24T06:23:12;99353.94;;;25.61;60.68
11343;BME280;5726;42.160;24.746;2023-05-24T06:25:37;99353.91;;;25.44;59.43
11343;BME280;5726;42.160;24.746;2023-05-24T06:28:04;99357.13;;;26.01;60.51
11343;BME280;5726;42.160;24.746;2023-05-24T06:30:30;99362.59;;;26.18;60.06
11343;BME280;5726;42.160;24.746;2023-05-24T06:32:57;99364.56;;;26.18;60.31
11343;BME280;5726;42.160;24.746;2023-05-24T06:35:23;99364.16;;;26.02;61.21
11343;BME280;5726;42.160;24.746;2023-05-24T06:37:48;99361.81;;;26.32;60.00
11343;BME280;5726;42.160;24.746;2023-05-24T06:40:14;99353.19;;;25.95;60.64
11343;BME280;5726;42.160;24.746;2023-05-24T06:42:39;99368.91;;;25.77;61.19
11343;BME280;5726;42.160;24.746;2023-05-24T06:45:05;99361.81;;;25.69;61.08
11343;BME280;5726;42.160;24.746;2023-05-24T06:47:32;99366.78;;;25.12;63.06
11343;BME280;5726;42.160;24.746;2023-05-24T06:49:57;99370.41;;;24.59;65.98
11343;BME280;5726;42.160;24.746;2023-05-24T06:52:23;99360.91;;;25.10;65.00
11343;BME280;5726;42.160;24.746;2023-05-24T06:54:48;99360.19;;;25.51;62.59
11343;BME280;5726;42.160;24.746;2023-05-24T06:57:14;99364.56;;;25.97;61.20
11343;BME280;5726;42.160;24.746;2023-05-24T06:59:40;99362.59;;;26.18;62.01
11343;BME280;5726;42.160;24.746;2023-05-24T07:02:05;99349.28;;;25.79;62.56
11343;BME280;5726;42.160;24.746;2023-05-24T07:04:30;99356.34;;;25.94;63.08
11343;BME280;5726;42.160;24.746;2023-05-24T07:06:57;99349.25;;;26.10;61.54
11343;BME280;5726;42.160;24.746;2023-05-24T07:09:23;99348.88;;;25.80;61.74
11343;BME280;5726;42.160;24.746;2023-05-24T07:11:48;99343.75;;;26.24;61.90
11343;BME280;5726;42.160;24.746;2023-05-24T07:14:14;99337.38;;;26.61;59.35
11343;BME280;5726;42.160;24.746;2023-05-24T07:16:39;99338.19;;;26.62;60.67
11343;BME280;5726;42.160;24.746;2023-05-24T07:19:05;99330.22;;;26.85;60.11
11343;BME280;5726;42.160;24.746;2023-05-24T07:21:31;99330.88;;;27.16;59.44
11343;BME280;5726;42.160;24.746;2023-05-24T07:23:57;99342.50;;;27.44;58.26
11343;BME280;5726;42.160;24.746;2023-05-24T07:26:22;99338.63;;;27.96;56.85
11343;BME280;5726;42.160;24.746;2023-05-24T07:28:48;99339.56;;;28.23;54.71
11343;BME280;5726;42.160;24.746;2023-05-24T07:31:13;99343.91;;;28.24;53.81
11343;BME280;5726;42.160;24.746;2023-05-24T07:33:39;99341.22;;;28.17;54.58
11343;BME280;5726;42.160;24.746;2023-05-24T07:36:05;99343.25;;;28.49;54.71
11343;BME280;5726;42.160;24.746;2023-05-24T07:38:31;99334.28;;;27.98;54.48
11343;BME280;5726;42.160;24.746;2023-05-24T07:41:01;99341.88;;;28.31;53.66
11343;BME280;5726;42.160;24.746;2023-05-24T07:43:28;99346.25;;;28.25;54.03
11343;BME280;5726;42.160;24.746;2023-05-24T07:45:53;99342.97;;;27.93;53.17
11343;BME280;5726;42.160;24.746;2023-05-24T07:48:19;99340.38;;;27.73;53.83
11343;BME280;5726;42.160;24.746;2023-05-24T07:50:48;99346.13;;;27.92;52.96
11343;BME280;5726;42.160;24.746;2023-05-24T07:53:16;99344.63;;;28.31;52.83
11343;BME280;5726;42.160;24.746;2023-05-24T07:55:42;99342.78;;;28.18;52.21
11343;BME280;5726;42.160;24.746;2023-05-24T07:58:11;99334.81;;;28.27;52.86
11343;BME280;5726;42.160;24.746;2023-05-24T08:00:36;99337.28;;;28.18;51.35
11343;BME280;5726;42.160;24.746;2023-05-24T08:03:03;99338.59;;;28.40;50.74
11343;BME280;5726;42.160;24.746;2023-05-24T08:05:29;99345.84;;;28.67;50.46
11343;BME280;5726;42.160;24.746;2023-05-24T08:07:55;99347.78;;;28.66;51.08
11343;BME280;5726;42.160;24.746;2023-05-24T08:10:21;99340.78;;;28.58;50.00
11343;BME280;5726;42.160;24.746;2023-05-24T08:12:47;99328.41;;;28.73;51.33
11343;BME280;5726;42.160;24.746;2023-05-24T08:15:15;99330.84;;;28.64;51.34
11343;BME280;5726;42.160;24.746;2023-05-24T08:17:41;99322.56;;;28.68;52.45
11343;BME280;5726;42.160;24.746;2023-05-24T08:20:07;99324.13;;;28.69;51.54
11343;BME280;5726;42.160;24.746;2023-05-24T08:22:39;99332.38;;;29.02;51.25
11343;BME280;5726;42.160;24.746;2023-05-24T08:25:05;99336.38;;;28.97;49.68
11343;BME280;5726;42.160;24.746;2023-05-24T08:27:31;99329.34;;;28.20;51.14
11343;BME280;5726;42.160;24.746;2023-05-24T08:29:57;99334.94;;;28.13;52.73
11343;BME280;5726;42.160;24.746;2023-05-24T08:32:23;99331.34;;;28.16;51.77
11343;BME280;5726;42.160;24.746;2023-05-24T08:34:48;99339.44;;;28.37;52.93
11343;BME280;5726;42.160;24.746;2023-05-24T08:37:14;99337.06;;;28.39;51.89
11343;BME280;5726;42.160;24.746;2023-05-24T08:39:43;99337.19;;;28.61;50.23
11343;BME280;5726;42.160;24.746;2023-05-24T08:42:09;99338.31;;;28.31;49.69
11343;BME280;5726;42.160;24.746;2023-05-24T08:44:46;99336.38;;;28.64;51.19
11343;BME280;5726;42.160;24.746;2023-05-24T08:47:12;99337.09;;;28.72;50.19
11343;BME280;5726;42.160;24.746;2023-05-24T08:49:39;99333.16;;;27.89;51.74
11343;BME280;5726;42.160;24.746;2023-05-24T08:52:05;99331.03;;;28.07;51.64
11343;BME280;5726;42.160;24.746;2023-05-24T08:54:34;99331.00;;;28.14;51.20
11343;BME280;5726;42.160;24.746;2023-05-24T08:57:01;99332.63;;;28.04;50.10
11343;BME280;5726;42.160;24.746;2023-05-24T08:59:27;99331.03;;;28.10;50.43
11343;BME280;5726;42.160;24.746;2023-05-24T09:01:53;99338.16;;;28.04;51.43
11343;BME280;5726;42.160;24.746;2023-05-24T09:04:20;99329.81;;;28.15;50.35
11343;BME280;5726;42.160;24.746;2023-05-24T09:06:47;99336.03;;;28.22;50.46
11343;BME280;5726;42.160;24.746;2023-05-24T09:09:15;99331.50;;;28.42;50.81
11343;BME280;5726;42.160;24.746;2023-05-24T09:11:44;99335.41;;;28.44;49.04
11343;BME280;5726;42.160;24.746;2023-05-24T09:14:12;99333.31;;;28.19;49.21
11343;BME280;5726;42.160;24.746;2023-05-24T09:16:38;99327.47;;;28.10;48.84
11343;BME280;5726;42.160;24.746;2023-05-24T09:19:04;99331.03;;;28.10;49.74
11343;BME280;5726;42.160;24.746;2023-05-24T09:21:29;99332.41;;;28.29;50.02
11343;BME280;5726;42.160;24.746;2023-05-24T09:23:54;99334.72;;;28.34;48.17
11343;BME280;5726;42.160;24.746;2023-05-24T09:26:20;99329.19;;;28.37;47.19
11343;BME280;5726;42.160;24.746;2023-05-24T09:28:46;99332.41;;;28.65;47.65
11343;BME280;5726;42.160;24.746;2023-05-24T09:31:12;99325.31;;;29.01;46.67
11343;BME280;5726;42.160;24.746;2023-05-24T09:33:38;99327.88;;;28.85;44.56
11343;BME280;5726;42.160;24.746;2023-05-24T09:36:05;99327.72;;;28.62;43.98
11343;BME280;5726;42.160;24.746;2023-05-24T09:38:32;99326.69;;;28.83;43.98
11343;BME280;5726;42.160;24.746;2023-05-24T09:41:09;99320.06;;;28.77;43.49
11343;BME280;5726;42.160;24.746;2023-05-24T09:43:46;99315.22;;;28.88;42.76
11343;BME280;5726;42.160;24.746;2023-05-24T09:46:16;99326.56;;;28.60;43.30
11343;BME280;5726;42.160;24.746;2023-05-24T09:48:58;99320.63;;;28.28;44.47
11343;BME280;5726;42.160;24.746;2023-05-24T09:51:24;99319.59;;;28.08;44.77
11343;BME280;5726;42.160;24.746;2023-05-24T09:53:49;99329.91;;;28.44;44.57
11343;BME280;5726;42.160;24.746;2023-05-24T09:56:17;99322.97;;;28.30;44.72
11343;BME280;5726;42.160;24.746;2023-05-24T09:58:44;99318.03;;;28.47;45.13
11343;BME280;5726;42.160;24.746;2023-05-24T10:01:09;99317.69;;;28.42;45.00
11343;BME280;5726;42.160;24.746;2023-05-24T10:03:36;99311.72;;;28.50;44.92
11343;BME280;5726;42.160;24.746;2023-05-24T10:06:03;99318.53;;;28.39;43.64
11343;BME280;5726;42.160;24.746;2023-05-24T10:08:33;99321.09;;;28.56;44.32
11343;BME280;5726;42.160;24.746;2023-05-24T10:11:01;99313.38;;;28.41;43.26
11343;BME280;5726;42.160;24.746;2023-05-24T10:13:28;99313.94;;;28.62;42.63
11343;BME280;5726;42.160;24.746;2023-05-24T10:15:54;99314.91;;;28.45;43.16
11343;BME280;5726;42.160;24.746;2023-05-24T10:18:20;99308.56;;;28.12;43.92
11343;BME280;5726;42.160;24.746;2023-05-24T10:20:45;99301.84;;;28.13;44.56
11343;BME280;5726;42.160;24.746;2023-05-24T10:23:14;99301.31;;;28.25;44.34
11343;BME280;5726;42.160;24.746;2023-05-24T10:25:53;99298.50;;;28.32;42.41
11343;BME280;5726;42.160;24.746;2023-05-24T10:28:21;99296.94;;;28.31;42.60
11343;BME280;5726;42.160;24.746;2023-05-24T10:33:21;99288.47;;;28.48;42.00
11343;BME280;5726;42.160;24.746;2023-05-24T10:35:48;99291.41;;;28.67;41.23
11343;BME280;5726;42.160;24.746;2023-05-24T10:38:14;99287.06;;;28.70;40.89
11343;BME280;5726;42.160;24.746;2023-05-24T10:40:41;99282.72;;;28.36;40.68
11343;BME280;5726;42.160;24.746;2023-05-24T10:43:07;99279.47;;;28.77;41.03
11343;BME280;5726;42.160;24.746;2023-05-24T10:45:36;99278.47;;;28.61;41.05
11343;BME280;5726;42.160;24.746;2023-05-24T10:50:37;99269.41;;;28.90;41.79
11343;BME280;5726;42.160;24.746;2023-05-24T10:53:17;99273.28;;;28.96;42.35
11343;BME280;5726;42.160;24.746;2023-05-24T10:55:52;99263.25;;;28.79;44.17
11343;BME280;5726;42.160;24.746;2023-05-24T10:58:19;99253.28;;;29.15;42.62
11343;BME280;5726;42.160;24.746;2023-05-24T11:00:45;99246.28;;;29.37;40.74
11343;BME280;5726;42.160;24.746;2023-05-24T11:03:13;99243.53;;;29.37;39.79
11343;BME280;5726;42.160;24.746;2023-05-24T11:08:14;99241.97;;;29.06;40.87
11343;BME280;5726;42.160;24.746;2023-05-24T11:10:39;99246.94;;;29.18;40.93
11343;BME280;5726;42.160;24.746;2023-05-24T11:13:07;99250.84;;;29.20;38.77
11343;BME280;5726;42.160;24.746;2023-05-24T11:15:33;99248.16;;;29.43;38.42
11343;BME280;5726;42.160;24.746;2023-05-24T11:20:34;99251.22;;;29.48;38.02
11343;BME280;5726;42.160;24.746;2023-05-24T11:23:07;99246.28;;;29.59;36.36
11343;BME280;5726;42.160;24.746;2023-05-24T11:25:36;99239.19;;;29.58;37.74
11343;BME280;5726;42.160;24.746;2023-05-24T11:28:09;99242.09;;;29.74;38.98
11343;BME280;5726;42.160;24.746;2023-05-24T11:30:45;99242.25;;;29.41;38.54
11343;BME280;5726;42.160;24.746;2023-05-24T11:33:18;99232.50;;;29.33;38.10
11343;BME280;5726;42.160;24.746;2023-05-24T11:35:51;99239.19;;;29.58;38.27
11343;BME280;5726;42.160;24.746;2023-05-24T11:38:19;99238.59;;;29.47;38.46
11343;BME280;5726;42.160;24.746;2023-05-24T11:40:48;99245.91;;;29.35;38.32
11343;BME280;5726;42.160;24.746;2023-05-24T11:43:18;99242.25;;;29.15;38.93
11343;BME280;5726;42.160;24.746;2023-05-24T11:45:49;99243.06;;;29.12;39.29
11343;BME280;5726;42.160;24.746;2023-05-24T11:48:17;99239.22;;;29.06;38.25
11343;BME280;5726;42.160;24.746;2023-05-24T11:50:44;99235.88;;;29.18;38.23
11343;BME280;5726;42.160;24.746;2023-05-24T11:53:15;99229.06;;;29.26;39.23
11343;BME280;5726;42.160;24.746;2023-05-24T11:55:41;99227.91;;;28.97;40.37
11343;BME280;5726;42.160;24.746;2023-05-24T11:58:21;99221.22;;;28.98;41.56
11343;BME280;5726;42.160;24.746;2023-05-24T12:00:47;99225.94;;;28.71;42.51
11343;BME280;5726;42.160;24.746;2023-05-24T12:03:13;99201.63;;;28.89;43.29
11343;BME280;5726;42.160;24.746;2023-05-24T12:05:38;99224.28;;;28.74;43.52
11343;BME280;5726;42.160;24.746;2023-05-24T12:08:10;99203.72;;;28.48;44.55
11343;BME280;5726;42.160;24.746;2023-05-24T12:10:43;99205.00;;;28.07;45.17
11343;BME280;5726;42.160;24.746;2023-05-24T12:13:22;99206.06;;;28.50;44.84
11343;BME280;5726;42.160;24.746;2023-05-24T12:15:53;99188.81;;;28.42;43.80
11343;BME280;5726;42.160;24.746;2023-05-24T12:18:22;99184.94;;;28.37;44.57
11343;BME280;5726;42.160;24.746;2023-05-24T12:20:49;99186.72;;;28.24;43.78
11343;BME280;5726;42.160;24.746;2023-05-24T12:23:15;99184.22;;;28.33;42.98
11343;BME280;5726;42.160;24.746;2023-05-24T12:25:41;99178.06;;;28.51;42.39
11343;BME280;5726;42.160;24.746;2023-05-24T12:28:06;99185.22;;;28.75;42.68
11343;BME280;5726;42.160;24.746;2023-05-24T12:30:32;99183.41;;;28.65;41.90
11343;BME280;5726;42.160;24.746;2023-05-24T12:32:57;99182.13;;;28.73;42.63
11343;BME280;5726;42.160;24.746;2023-05-24T12:35:23;99178.56;;;28.99;42.82
11343;BME280;5726;42.160;24.746;2023-05-24T12:37:49;99182.41;;;29.05;42.17
11343;BME280;5726;42.160;24.746;2023-05-24T12:40:19;99184.59;;;29.17;40.56
11343;BME280;5726;42.160;24.746;2023-05-24T12:42:55;99183.00;;;28.63;41.21
11343;BME280;5726;42.160;24.746;2023-05-24T12:45:25;99185.56;;;28.51;42.73
11343;BME280;5726;42.160;24.746;2023-05-24T12:47:53;99182.94;;;28.70;42.49
11343;BME280;5726;42.160;24.746;2023-05-24T12:53:03;99177.38;;;28.74;42.49
11343;BME280;5726;42.160;24.746;2023-05-24T12:55:29;99183.41;;;28.65;42.32
11343;BME280;5726;42.160;24.746;2023-05-24T12:57:56;99178.47;;;29.06;41.20
11343;BME280;5726;42.160;24.746;2023-05-24T13:00:23;99188.75;;;29.05;41.61
11343;BME280;5726;42.160;24.746;2023-05-24T13:02:51;99182.25;;;29.42;40.64
11343;BME280;5726;42.160;24.746;2023-05-24T13:05:20;99181.28;;;29.51;39.03
11343;BME280;5726;42.160;24.746;2023-05-24T13:07:46;99180.41;;;29.77;39.04
11343;BME280;5726;42.160;24.746;2023-05-24T13:10:12;99178.44;;;29.78;38.86
11343;BME280;5726;42.160;24.746;2023-05-24T13:12:37;99179.09;;;29.85;38.59
11343;BME280;5726;42.160;24.746;2023-05-24T13:15:03;99173.66;;;30.01;37.76
11343;BME280;5726;42.160;24.746;2023-05-24T13:17:29;99181.56;;;29.57;38.98
11343;BME280;5726;42.160;24.746;2023-05-24T13:19:58;99180.56;;;29.25;39.45
11343;BME280;5726;42.160;24.746;2023-05-24T13:22:23;99180.75;;;29.11;39.23
11343;BME280;5726;42.160;24.746;2023-05-24T13:24:49;99186.50;;;28.97;40.65
11343;BME280;5726;42.160;24.746;2023-05-24T13:27:15;99186.41;;;28.78;42.67
11343;BME280;5726;42.160;24.746;2023-05-24T13:29:40;99203.41;;;28.10;47.23